Time;durP1;ratioP1;P1;durP2;ratioP2;P2;SDS_P1;SDS_P2;PMS_P1;PMS_P2;Temp;Humidity;BMP_temperature;BMP_pressure;BME280_temperature;BME280_humidity;BME280_pressure;Samples;Min_cycle;Max_cycle;Signal;HPM_P1;HPM_P2
2022/01/16 15:58:21;;;;;;;72.00;21.30;;;;;;;0.28;73.81;98752.59;1813332;79;25610;-58
2022/01/16 16:00:48;;;;;;;52.78;16.82;;;;;;;0.24;73.46;98744.19;1786371;80;25762;-62
2022/01/16 16:03:15;;;;;;;106.35;22.98;;;;;;;0.29;73.10;98744.81;1786433;80;29545;-62
2022/01/16 16:05:42;;;;;;;52.00;14.75;;;;;;;0.42;72.82;98747.70;1786594;80;25658;-61
2022/01/16 16:08:09;;;;;;;71.42;20.35;;;;;;;0.53;73.05;98767.05;1786775;80;25739;-62
2022/01/16 16:10:36;;;;;;;76.85;24.30;;;;;;;0.62;72.25;98762.88;1786477;80;25714;-61
2022/01/16 16:13:04;;;;;;;52.93;18.30;;;;;;;0.71;72.09;98774.08;1786825;80;25810;-62
2022/01/16 16:15:31;;;;;;;66.60;20.15;;;;;;;0.72;72.29;98781.09;1786851;80;27414;-60
2022/01/16 16:17:59;;;;;;;44.65;14.83;;;;;;;0.71;72.31;98779.47;1786495;80;25742;-60
2022/01/16 16:20:27;;;;;;;64.62;18.85;;;;;;;0.74;72.41;98775.45;1785876;80;25703;-62
2022/01/16 16:22:57;;;;;;;50.50;16.27;;;;;;;0.74;72.59;98772.23;1786689;80;25837;-61
2022/01/16 16:25:29;;;;;;;62.20;20.35;;;;;;;0.80;72.27;98774.47;1778626;80;26462;-63
2022/01/16 16:27:59;;;;;;;44.13;16.90;;;;;;;0.82;72.38;98772.36;1755574;81;28714;-62
2022/01/16 16:30:28;;;;;;;33.20;12.65;;;;;;;0.86;72.20;98772.66;1755369;81;25922;-59
2022/01/16 16:32:56;;;;;;;39.90;14.98;;;;;;;0.86;72.70;98770.80;1755689;81;25694;-58
2022/01/16 16:35:27;;;;;;;27.30;9.38;;;;;;;0.87;72.73;98779.16;1755376;81;25731;-58
2022/01/16 16:37:56;;;;;;;32.98;11.60;;;;;;;0.85;72.82;98777.26;1755719;81;25636;-58
2022/01/16 16:40:25;;;;;;;38.58;14.78;;;;;;;0.83;73.12;98773.98;1755748;81;27436;-58
2022/01/16 16:42:52;;;;;;;48.40;17.92;;;;;;;0.84;73.00;98774.81;1755991;81;25597;-58
2022/01/16 16:45:19;;;;;;;34.80;13.83;;;;;;;0.83;73.59;98786.12;1756285;81;25663;-59
2022/01/16 16:47:46;;;;;;;24.60;10.50;;;;;;;0.86;73.30;98790.20;1756504;81;25675;-59
2022/01/16 16:50:15;;;;;;;39.08;13.80;;;;;;;0.87;73.42;98785.11;1756535;81;25415;-58
2022/01/16 16:52:43;;;;;;;28.12;11.33;;;;;;;0.84;73.51;98781.00;1756810;81;27373;-63
2022/01/16 16:55:11;;;;;;;22.62;9.45;;;;;;;0.83;73.54;98786.12;1756297;81;25676;-63
2022/01/16 16:57:39;;;;;;;38.45;14.90;;;;;;;0.79;73.74;98786.34;1752141;81;25408;-63
2022/01/16 17:00:09;;;;;;;35.17;13.35;;;;;;;0.79;73.52;98790.38;1749169;82;25869;-64
2022/01/16 17:02:36;;;;;;;33.40;14.93;;;;;;;0.78;73.96;98796.02;1749374;82;25642;-63
2022/01/16 17:05:05;;;;;;;33.45;13.95;;;;;;;0.81;73.95;98786.09;1749199;82;27372;-63
2022/01/16 17:07:31;;;;;;;33.80;13.48;;;;;;;0.82;73.92;98783.15;1749231;82;25692;-62
2022/01/16 17:09:58;;;;;;;37.08;14.05;;;;;;;0.83;74.09;98786.12;1748753;82;25400;-62
2022/01/16 17:12:25;;;;;;;30.23;12.25;;;;;;;0.77;74.31;98783.06;1748485;82;25406;-63
2022/01/16 17:14:52;;;;;;;32.35;13.32;;;;;;;0.74;74.23;98777.62;1748597;82;25764;-58
2022/01/16 17:17:19;;;;;;;29.20;11.48;;;;;;;0.72;74.41;98785.69;1748388;82;27225;-58
2022/01/16 17:19:47;;;;;;;26.90;11.38;;;;;;;0.69;74.69;98782.13;1748452;82;26090;-57
2022/01/16 17:22:21;;;;;;;30.70;13.60;;;;;;;0.68;74.85;98794.80;1748347;81;25708;-58
2022/01/16 17:24:52;;;;;;;41.13;15.95;;;;;;;0.64;75.06;98794.18;1748088;82;25480;-59
2022/01/16 17:27:20;;;;;;;32.93;13.88;;;;;;;0.61;75.11;98792.25;1748809;82;25604;-58
2022/01/16 17:29:47;;;;;;;27.05;12.68;;;;;;;0.64;75.27;98794.18;1748609;82;28286;-59
2022/01/16 17:32:15;;;;;;;34.73;13.83;;;;;;;0.63;75.53;98805.48;1748250;82;25404;-58
2022/01/16 17:34:43;;;;;;;25.27;11.05;;;;;;;0.61;75.53;98811.13;1748316;82;25413;-58
2022/01/16 17:37:11;;;;;;;20.97;10.43;;;;;;;0.54;75.84;98814.52;1748316;81;25502;-58
2022/01/16 17:39:42;;;;;;;27.87;13.53;;;;;;;0.53;76.08;98818.80;1748556;82;25384;-58
2022/01/16 17:42:10;;;;;;;33.38;15.00;;;;;;;0.51;75.82;98822.30;1748588;81;28308;-59
2022/01/16 17:44:36;;;;;;;42.15;16.90;;;;;;;0.49;76.05;98824.69;1748259;81;25639;-58
2022/01/16 17:47:04;;;;;;;34.30;15.40;;;;;;;0.48;76.22;98823.58;1748516;82;25645;-59
2022/01/16 17:49:31;;;;;;;29.75;14.68;;;;;;;0.49;76.15;98819.84;1748303;82;25708;-58
2022/01/16 17:51:58;;;;;;;35.15;15.00;;;;;;;0.47;76.16;98824.12;1748565;82;25439;-58
2022/01/16 17:54:26;;;;;;;41.25;16.48;;;;;;;0.44;76.22;98830.00;1748512;82;27426;-58
2022/01/16 17:56:52;;;;;;;36.63;14.87;;;;;;;0.40;76.41;98844.21;1748282;82;25484;-58
2022/01/16 17:59:19;;;;;;;32.13;14.00;;;;;;;0.37;76.75;98854.93;1748657;82;25642;-58
2022/01/16 18:01:52;;;;;;;39.50;17.70;;;;;;;0.34;77.13;98862.15;1748428;82;25511;-59
2022/01/16 18:07:09;;;;;;;29.92;15.08;;;;;;;0.27;77.62;98855.58;1639372;87;26716;-58
2022/01/16 18:09:39;;;;;;;33.40;13.28;;;;;;;0.28;77.43;98858.55;1637698;87;25568;-58
2022/01/16 18:12:08;;;;;;;25.02;11.48;;;;;;;0.26;77.60;98862.03;1693552;82;25866;-58
2022/01/16 18:14:35;;;;;;;35.88;15.50;;;;;;;0.25;77.52;98873.85;1748676;82;25854;-58
2022/01/16 18:17:02;;;;;;;26.82;13.30;;;;;;;0.20;77.68;98884.00;1748546;82;25740;-58
2022/01/16 18:19:29;;;;;;;30.40;14.00;;;;;;;0.19;77.76;98889.12;1748497;82;27513;-57
2022/01/16 18:21:57;;;;;;;38.42;18.37;;;;;;;0.17;78.11;98888.52;1748412;82;25686;-58
2022/01/16 18:24:23;;;;;;;74.42;36.00;;;;;;;0.18;77.72;98888.01;1748252;82;25432;-58
2022/01/16 18:26:50;;;;;;;161.43;76.40;;;;;;;0.19;78.16;98893.16;1748362;82;25621;-58
2022/01/16 18:29:18;;;;;;;49.55;26.50;;;;;;;0.23;77.87;98898.35;1748511;82;25613;-58
2022/01/16 18:31:45;;;;;;;60.10;30.55;;;;;;;0.24;78.12;98889.75;1748292;82;27510;-58
2022/01/16 18:34:13;;;;;;;155.15;75.70;;;;;;;0.21;78.30;98893.75;1748147;82;25492;-58
2022/01/16 18:36:45;;;;;;;42.90;20.68;;;;;;;0.19;78.16;98895.02;1748290;81;25648;-58
2022/01/16 18:39:08;;;;;;;219.95;98.22;;;;;;;0.16;78.30;98896.84;1746456;82;25416;-58
2022/01/16 18:41:36;;;;;;;49.30;24.50;;;;;;;0.15;78.45;98892.01;1748346;82;25634;-58
2022/01/16 18:44:03;;;;;;;63.35;34.88;;;;;;;0.18;78.57;98888.01;1748752;82;27591;-58
2022/01/16 18:46:31;;;;;;;63.23;37.83;;;;;;;0.17;78.65;98887.73;1748657;82;25654;-58
2022/01/16 18:49:00;;;;;;;61.90;31.00;;;;;;;0.15;78.46;98894.70;1748283;82;25423;-58
2022/01/16 18:51:30;;;;;;;88.20;46.25;;;;;;;0.08;79.09;98896.69;1748284;82;25476;-58
2022/01/16 18:53:58;;;;;;;114.03;59.40;;;;;;;0.08;78.95;98909.65;1748554;82;25466;-58
2022/01/16 18:56:26;;;;;;;58.17;27.98;;;;;;;0.11;79.15;98901.09;1748379;82;27493;-58
2022/01/16 18:58:53;;;;;;;196.45;103.27;;;;;;;0.16;78.71;98906.28;1748138;82;25858;-57
2022/01/16 19:01:21;;;;;;;61.88;31.90;;;;;;;0.20;79.08;98909.61;1748510;82;25739;-58
2022/01/16 19:03:49;;;;;;;61.35;33.35;;;;;;;0.29;78.56;98914.64;1748451;82;25776;-58
2022/01/16 19:06:16;;;;;;;70.32;37.83;;;;;;;0.36;78.43;98920.70;1748754;82;25668;-57
2022/01/16 19:08:44;;;;;;;49.50;24.90;;;;;;;0.39;78.14;98920.22;1748307;81;27411;-58
2022/01/16 19:11:11;;;;;;;38.10;21.02;;;;;;;0.37;78.31;98906.98;1748520;82;25749;-58
2022/01/16 19:13:38;;;;;;;49.00;26.15;;;;;;;0.40;78.05;98904.33;1748233;82;25685;-59
2022/01/16 19:16:06;;;;;;;55.23;27.60;;;;;;;0.42;78.02;98896.83;1748227;82;25740;-58
2022/01/16 19:18:32;;;;;;;47.67;27.98;;;;;;;0.44;77.96;98909.55;1748469;82;25581;-58
2022/01/16 19:20:59;;;;;;;68.92;36.58;;;;;;;0.46;77.88;98902.57;1748488;82;27257;-58
2022/01/16 19:23:25;;;;;;;54.10;28.55;;;;;;;0.47;77.90;98901.50;1748178;82;25688;-58
2022/01/16 19:25:52;;;;;;;32.73;14.98;;;;;;;0.51;77.69;98908.59;1748581;82;25404;-59
2022/01/16 19:28:19;;;;;;;52.50;28.87;;;;;;;0.54;77.65;98899.47;1748434;82;25576;-59
2022/01/16 19:30:47;;;;;;;51.48;26.85;;;;;;;0.56;77.45;98904.63;1748675;82;25594;-58
2022/01/16 19:33:14;;;;;;;37.17;19.02;;;;;;;0.58;77.33;98903.31;1748218;82;27413;-59
2022/01/16 19:35:42;;;;;;;35.78;16.42;;;;;;;0.58;77.38;98912.75;1748081;82;25618;-58
2022/01/16 19:38:08;;;;;;;42.83;17.40;;;;;;;0.56;77.57;98911.36;1748254;82;25632;-63
2022/01/16 19:40:36;;;;;;;41.63;17.17;;;;;;;0.55;77.52;98910.53;1748526;82;25407;-61
2022/01/16 19:43:10;;;;;;;39.65;17.35;;;;;;;0.53;77.63;98905.10;1748635;82;25420;-62
2022/01/16 19:45:40;;;;;;;28.12;11.75;;;;;;;0.53;77.49;98901.06;1747795;82;26997;-62
2022/01/16 19:48:08;;;;;;;33.28;14.38;;;;;;;0.50;77.55;98909.11;1748215;82;25687;-62
2022/01/16 19:50:35;;;;;;;31.93;15.55;;;;;;;0.49;77.55;98912.33;1748211;82;25717;-62
2022/01/16 19:53:02;;;;;;;38.58;16.67;;;;;;;0.52;77.50;98919.14;1748858;82;25823;-62
2022/01/16 19:55:28;;;;;;;29.48;12.85;;;;;;;0.51;77.43;98920.72;1748381;82;25691;-62
2022/01/16 19:57:55;;;;;;;42.78;18.50;;;;;;;0.51;77.33;98922.08;1746685;82;27384;-63
2022/01/16 20:00:24;;;;;;;44.18;18.20;;;;;;;0.55;77.29;98924.02;1742788;82;25641;-62
2022/01/16 20:05:39;;;;;;;35.28;15.98;;;;;;;0.61;77.34;98920.91;1665170;86;25827;-62
2022/01/16 20:08:06;;;;;;;42.17;18.12;;;;;;;0.56;77.46;98940.52;1665430;86;25713;-62
2022/01/16 20:10:32;;;;;;;41.33;16.42;;;;;;;0.55;77.72;98941.55;1665463;86;27452;-58
2022/01/16 20:12:59;;;;;;;40.33;17.15;;;;;;;0.54;77.96;98935.88;1665021;86;25852;-62
2022/01/16 20:15:26;;;;;;;35.10;15.95;;;;;;;0.46;78.67;98934.92;1665247;86;25754;-64
2022/01/16 20:17:56;;;;;;;45.83;18.87;;;;;;;0.41;79.09;98929.42;1664480;85;25579;-63
2022/01/16 20:20:24;;;;;;;35.52;15.98;;;;;;;0.41;79.11;98913.25;1660945;85;25765;-63
2022/01/16 20:22:50;;;;;;;40.63;18.50;;;;;;;0.42;79.10;98913.52;1662732;86;26912;-63
2022/01/16 20:25:16;;;;;;;32.88;14.05;;;;;;;0.45;78.94;98914.39;1662786;86;25681;-58
2022/01/16 20:27:45;;;;;;;35.52;16.05;;;;;;;0.44;79.15;98919.51;1663313;86;25529;-58
2022/01/16 20:30:12;;;;;;;39.70;16.52;;;;;;;0.41;79.26;98922.68;1662908;86;25726;-58
2022/01/16 20:32:39;;;;;;;43.50;18.32;;;;;;;0.39;79.83;98918.05;1663132;86;25547;-58
2022/01/16 20:35:07;;;;;;;41.00;17.40;;;;;;;0.35;79.94;98917.17;1663022;86;27601;-59
2022/01/16 20:37:33;;;;;;;35.92;14.35;;;;;;;0.34;80.32;98913.38;1699004;84;25452;-58
2022/01/16 20:40:00;;;;;;;24.92;11.97;;;;;;;0.32;80.73;98909.56;1699291;84;25442;-58
2022/01/16 20:42:27;;;;;;;31.02;13.83;;;;;;;0.32;80.95;98913.61;1699480;84;25717;-58
2022/01/16 20:44:53;;;;;;;35.50;14.53;;;;;;;0.29;80.95;98911.39;1699415;84;25705;-58
2022/01/16 20:47:20;;;;;;;35.80;15.63;;;;;;;0.26;80.90;98917.30;1699840;84;28036;-58
2022/01/16 20:49:46;;;;;;;38.88;16.75;;;;;;;0.26;80.92;98915.95;1699051;84;25731;-58
2022/01/16 20:52:16;;;;;;;44.08;17.95;;;;;;;0.27;80.97;98920.27;1699405;84;25675;-58
2022/01/16 20:54:42;;;;;;;40.58;17.23;;;;;;;0.31;81.25;98924.63;1699464;84;25660;-60
2022/01/16 20:57:08;;;;;;;45.40;17.67;;;;;;;0.33;81.27;98935.48;1699376;84;25669;-59
2022/01/16 20:59:35;;;;;;;38.02;14.87;;;;;;;0.37;81.22;98938.51;1699548;84;28567;-59
2022/01/16 21:02:04;;;;;;;38.58;16.15;;;;;;;0.39;81.03;98934.22;1699547;84;25491;-58
2022/01/16 21:04:30;;;;;;;34.27;14.10;;;;;;;0.35;81.15;98934.70;1701587;84;25609;-58
2022/01/16 21:06:59;;;;;;;36.90;15.45;;;;;;;0.33;81.56;98931.45;1704707;84;25436;-58
2022/01/16 21:09:26;;;;;;;26.75;10.75;;;;;;;0.34;81.62;98929.55;1704431;84;25637;-58
2022/01/16 21:11:54;;;;;;;33.42;15.03;;;;;;;0.32;81.77;98920.35;1705041;84;27494;-59
2022/01/16 21:14:21;;;;;;;32.65;13.98;;;;;;;0.35;81.70;98927.16;1704633;84;25732;-58
2022/01/16 21:16:51;;;;;;;43.17;17.42;;;;;;;0.35;81.64;98921.77;1705012;84;25499;-58
2022/01/16 21:19:17;;;;;;;37.42;15.25;;;;;;;0.31;81.67;98913.33;1704362;84;25696;-58
2022/01/16 21:21:43;;;;;;;38.85;16.67;;;;;;;0.32;81.65;98906.88;1704976;84;25471;-59
2022/01/16 21:24:10;;;;;;;27.27;11.95;;;;;;;0.36;81.54;98905.88;1704685;84;27515;-59
2022/01/16 21:26:36;;;;;;;20.40;8.23;;;;;;;0.36;81.64;98901.31;1704607;84;25524;-59
2022/01/16 21:29:03;;;;;;;24.63;11.20;;;;;;;0.36;81.54;98905.88;1704583;84;25628;-59
2022/01/16 21:31:30;;;;;;;37.40;15.25;;;;;;;0.37;81.43;98901.59;1704671;84;25495;-59
2022/01/16 21:33:58;;;;;;;35.52;16.07;;;;;;;0.37;81.57;98900.24;1705154;84;25415;-58
2022/01/16 21:36:25;;;;;;;77.65;28.42;;;;;;;0.40;81.40;98896.79;1704936;84;27327;-62
2022/01/16 21:38:53;;;;;;;45.98;22.62;;;;;;;0.39;81.30;98891.91;1704553;84;25692;-58
2022/01/16 21:41:21;;;;;;;161.47;66.05;;;;;;;0.40;81.34;98895.44;1693085;84;26259;-59
2022/01/16 21:43:48;;;;;;;141.18;68.92;;;;;;;0.41;81.53;98896.55;1667164;86;25477;-58
2022/01/16 21:46:15;;;;;;;232.22;108.22;;;;;;;0.47;81.19;98895.59;1673550;84;25617;-58
2022/01/16 21:48:41;;;;;;;247.17;99.47;;;;;;;0.50;81.16;98894.28;1674222;84;27453;-59
2022/01/16 21:51:12;;;;;;;111.42;37.73;;;;;;;0.52;81.09;98896.73;1674350;84;25789;-59
2022/01/16 21:53:38;;;;;;;44.20;19.77;;;;;;;0.50;80.96;98898.32;1669920;86;25603;-59
2022/01/16 21:56:10;;;;;;;37.75;14.98;;;;;;;0.49;81.11;98903.44;1669492;86;25566;-59
2022/01/16 21:58:36;;;;;;;44.48;17.10;;;;;;;0.49;81.28;98908.28;1669485;86;25725;-59
2022/01/16 22:01:03;;;;;;;106.35;28.32;;;;;;;0.52;81.08;98902.95;1669619;86;27584;-59
2022/01/16 22:03:29;;;;;;;53.28;16.97;;;;;;;0.54;81.20;98897.29;1669776;86;25835;-58
2022/01/16 22:05:56;;;;;;;62.50;17.85;;;;;;;0.53;81.30;98899.70;1682267;84;25528;-58
2022/01/16 22:08:22;;;;;;;43.42;13.58;;;;;;;0.50;81.33;98894.28;1683756;84;25578;-59
2022/01/16 22:10:52;;;;;;;77.10;22.80;;;;;;;0.48;81.48;98893.69;1683745;85;25584;-58
2022/01/16 22:13:22;;;;;;;46.95;16.37;;;;;;;0.51;81.30;98895.91;1683714;84;27855;-58
2022/01/16 22:15:49;;;;;;;63.85;20.25;;;;;;;0.55;81.25;98894.35;1683462;85;25703;-58
2022/01/16 22:18:15;;;;;;;63.98;20.95;;;;;;;0.59;81.09;98889.30;1683781;84;25487;-58
2022/01/16 22:20:42;;;;;;;43.15;15.03;;;;;;;0.61;81.05;98889.89;1683739;85;25682;-59
2022/01/16 22:23:08;;;;;;;48.87;15.75;;;;;;;0.60;81.14;98894.45;1683956;84;25717;-58
2022/01/16 22:25:34;;;;;;;61.48;18.77;;;;;;;0.57;81.18;98893.59;1683589;85;27498;-59
2022/01/16 22:28:01;;;;;;;29.42;13.45;;;;;;;0.56;81.22;98886.57;1683613;85;25586;-61
2022/01/16 22:30:27;;;;;;;25.88;10.30;;;;;;;0.56;81.28;98893.83;1683652;85;25619;-62
2022/01/16 22:32:54;;;;;;;19.27;8.15;;;;;;;0.58;81.27;98889.83;1683745;85;25639;-60
2022/01/16 22:35:20;;;;;;;36.30;13.93;;;;;;;0.59;81.29;98890.13;1683711;85;25602;-63
2022/01/16 22:37:46;;;;;;;20.60;9.35;;;;;;;0.57;81.44;98892.77;1683637;85;27509;-62
2022/01/16 22:40:13;;;;;;;42.30;16.55;;;;;;;0.56;81.49;98887.92;1683892;85;25614;-62
2022/01/16 22:42:40;;;;;;;46.63;16.27;;;;;;;0.56;81.64;98882.52;1683767;85;25720;-60
2022/01/16 22:45:08;;;;;;;40.73;16.45;;;;;;;0.59;81.67;98886.09;1683870;84;25761;-61
2022/01/16 22:47:34;;;;;;;43.58;15.88;;;;;;;0.63;81.60;98885.05;1683828;84;25428;-61
2022/01/16 22:50:00;;;;;;;38.60;14.60;;;;;;;0.65;81.69;98892.39;1683786;85;28293;-58
2022/01/16 22:52:29;;;;;;;45.03;16.50;;;;;;;0.70;81.45;98888.96;1683542;85;27141;-58
2022/01/16 22:54:58;;;;;;;32.48;12.40;;;;;;;0.71;81.44;98883.84;1683589;85;25464;-58
2022/01/16 22:57:27;;;;;;;36.93;14.05;;;;;;;0.68;81.43;98891.07;1683911;84;25436;-61
2022/01/16 22:59:53;;;;;;;48.40;17.12;;;;;;;0.66;81.60;98894.56;1683713;85;25723;-60
2022/01/16 23:02:28;;;;;;;46.18;17.57;;;;;;;0.66;81.69;98895.36;1684008;85;27372;-64
2022/01/16 23:04:54;;;;;;;42.48;15.53;;;;;;;0.70;81.63;98897.05;1686622;84;25942;-62
2022/01/16 23:07:20;;;;;;;48.30;18.73;;;;;;;0.74;81.73;98904.42;1692779;84;25649;-63
2022/01/16 23:09:46;;;;;;;68.60;25.12;;;;;;;0.75;81.79;98884.47;1692423;84;25676;-64
2022/01/16 23:12:13;;;;;;;42.78;16.25;;;;;;;0.77;81.87;98888.82;1692435;84;25436;-63
2022/01/16 23:14:39;;;;;;;37.88;13.95;;;;;;;0.74;82.08;98893.63;1692568;84;28141;-64
2022/01/16 23:17:07;;;;;;;36.05;14.93;;;;;;;0.70;82.43;98894.36;1692623;84;25628;-64
2022/01/16 23:19:33;;;;;;;46.80;18.67;;;;;;;0.67;82.52;98897.02;1692517;84;25684;-64
2022/01/16 23:22:00;;;;;;;34.33;15.18;;;;;;;0.66;82.60;98902.66;1692213;84;25681;-65
2022/01/16 23:24:26;;;;;;;40.38;15.38;;;;;;;0.68;82.80;98907.26;1692433;84;25601;-65
2022/01/16 23:26:53;;;;;;;47.95;17.12;;;;;;;0.66;83.34;98914.24;1692341;84;27534;-64
2022/01/16 23:29:19;;;;;;;41.77;15.80;;;;;;;0.66;83.40;98904.00;1692464;84;25696;-64
2022/01/16 23:31:46;;;;;;;32.78;14.58;;;;;;;0.62;83.93;98895.56;1692243;84;25621;-64
2022/01/16 23:34:12;;;;;;;37.48;13.88;;;;;;;0.57;84.18;98892.77;1692275;84;25664;-64
2022/01/16 23:36:38;;;;;;;45.15;17.50;;;;;;;0.55;84.35;98894.35;1692791;84;25490;-58
2022/01/16 23:39:05;;;;;;;34.83;13.88;;;;;;;0.54;84.41;98890.03;1692432;84;28350;-59
2022/01/16 23:41:33;;;;;;;41.28;14.58;;;;;;;0.54;84.72;98882.45;1692570;84;25832;-58
2022/01/16 23:44:03;;;;;;;30.25;12.03;;;;;;;0.53;85.19;98880.83;1692598;84;25697;-59
2022/01/16 23:46:27;;;;;;;37.00;15.05;;;;;;;0.54;85.09;98880.59;1691848;84;25600;-59
2022/01/16 23:48:54;;;;;;;39.65;14.47;;;;;;;0.52;85.28;98874.64;1692275;84;25480;-59
2022/01/16 23:51:20;;;;;;;20.05;7.70;;;;;;;0.52;85.38;98881.90;1692305;84;27472;-60
2022/01/16 23:53:47;;;;;;;25.70;10.65;;;;;;;0.46;86.08;98874.25;1692197;84;25621;-60
2022/01/16 23:56:14;;;;;;;25.17;10.35;;;;;;;0.43;86.16;98859.91;1692573;84;25706;-61
2022/01/16 23:58:46;;;;;;;26.17;11.55;;;;;;;0.43;86.05;98853.97;1692241;84;25677;-60
